Amsterdam, MT

2:28 PM MDT on September 01, 2014 (GMT -0600)
Bridgewater Ranch, West Stagecoach Trail, Amsterdam, Montana | Change Station
CLOSE
Current Station
Personal Weather Station
Location: Manhattan, MT
Elevation: 4450 ft
Nearby Weather Stations

Elev 4450 ft 45.79 °N, 111.36 °W | Updated 6 seconds ago

Mostly Cloudy
Mostly Cloudy
63.6 °F
Feels Like 63.6 °F
N
2.0
Wind Variable Wind from West
Gusts 9.0 mph

Today
High -- | Low -- °F
--% Chance of Precip.
Yesterday
High -- | Low -- °F
Precip. -- in
6:46 AM 8:03 PM
Waxing Crescent, 44% visible
Pressure 30.03 in
Visibility 10.0 miles
Clouds Clear
Dew Point 33 °F
Humidity 32%
Rainfall 0.00 in
Snow Depth Not available.
UV 8 out of 12
Pollen 6.70 out of 12
Air Quality Not available.
Flu Activity Not available.
SPECI KBZN 012016Z VRB04KT 10SM CLR 18/03 A3003 RMK AO2 T01780028

More Conditions Fewer Conditions

Pressure 30.03 in
Visibility 10.0 miles
Clouds Clear
Dew Point 33 °F
Humidity 32%
Rainfall 0.00 in
Snow Depth Not available.
UV 8 out of 12
Pollen 6.70 out of 12
Air Quality Not available.
Flu Activity Not available.
SPECI KBZN 012016Z VRB04KT 10SM CLR 18/03 A3003 RMK AO2 T01780028

More Conditions Fewer Conditions

10-Day Weather Forecast

Almanac

Astronomy

Sep. 01, 2014 Rise Set
Actual Time 6:46 AM MDT 8:03 PM MDT
Civil Twilight 6:15 AM MDT 8:33 PM MDT
Nautical Twilight 5:38 AM MDT 9:10 PM MDT
Astronomical Twilight 4:59 AM MDT 9:50 PM MDT
Moon 1:56 PM MDT 11:46 PM MDT
Length of Visible Light 14h 18m
Length of Day
13h 16m
Tomorrow will be 3m 6s shorter.
Waxing Crescent, 44% of the Moon is Illuminated
Today
Waxing Crescent
Sep 2
First Quarter
Sep 8
Full
Sep 15
Last Quarter
Sep 24
New

Today's Extremes

State Highs State Lows

Community

WunderPhotos

Upload Photos

1,749,397 photos uploaded!

WunderBlogs® & News

Nearby

Snow Depth

Station Depth Elevation
Brackett Creek 1 in 7320 ft
Shower Falls 3 in 8100 ft
Lower Twin 1 in 7900 ft
Lone Mountain 0 in 8880 ft
Tizer Basin 1 in 6840 ft

Earthquake Activity

City Distance Mag. Time & Date
No recent earthquake activity has been reported nearby.
Minimum magnitude displayed is 2.5.

Coastal Water Temperatures

Place Temperature
No Stations Reporting

Nearby Weather Stations